createdAt,value
2017-10-26T00:00:06.239Z,72.51
2017-10-26T00:02:50.099Z,72.30
2017-10-26T00:05:24.930Z,72.09
2017-10-26T00:07:59.800Z,72.26
2017-10-26T00:10:41.166Z,72.28
2017-10-26T00:13:19.366Z,72.29
2017-10-26T00:15:59.386Z,72.61
2017-10-26T00:21:25.484Z,73.29
2017-10-26T00:26:45.091Z,73.62
2017-10-26T00:32:06.639Z,74.19
2017-10-26T00:34:43.477Z,74.43
2017-10-26T00:37:23.930Z,74.87
2017-10-26T00:39:58.790Z,75.00
2017-10-26T00:42:42.192Z,75.68
2017-10-26T00:45:22.999Z,75.98
2017-10-26T00:48:12.031Z,76.27
2017-10-26T00:50:48.965Z,76.43
2017-10-26T00:53:24.465Z,76.35
2017-10-26T00:56:06.433Z,76.58
2017-10-26T00:58:40.972Z,76.63
2017-10-26T01:01:15.743Z,76.59
2017-10-26T01:03:53.181Z,76.95
2017-10-26T01:06:33.787Z,77.19
2017-10-26T01:09:08.665Z,77.04
2017-10-26T01:11:48.973Z,77.43
2017-10-26T01:14:29.374Z,77.39
2017-10-26T01:17:07.202Z,77.64
2017-10-26T01:19:42.015Z,77.39
2017-10-26T01:22:24.622Z,77.17
2017-10-26T01:34:06.289Z,78.19
2017-10-26T01:36:43.678Z,78.15
2017-10-26T01:39:19.523Z,78.11
2017-10-26T01:41:58.774Z,78.45
2017-10-26T01:44:41.781Z,78.46
2017-10-26T01:47:23.394Z,78.17
2017-10-26T01:49:59.105Z,77.81
2017-10-26T01:52:43.769Z,77.77
2017-10-26T01:55:24.763Z,77.56
2017-10-26T01:58:10.750Z,77.73
2017-10-26T02:00:45.871Z,77.76
2017-10-26T02:03:21.598Z,77.35
2017-10-26T02:05:57.599Z,77.20
2017-10-26T02:08:35.076Z,77.00
2017-10-26T02:11:12.098Z,77.09
2017-10-26T02:13:47.100Z,76.75
2017-10-26T02:16:24.391Z,76.85
2017-10-26T02:18:59.392Z,77.48
2017-10-26T02:21:45.234Z,78.06
2017-10-26T02:24:22.287Z,78.41
2017-10-26T02:26:57.424Z,79.39
2017-10-26T02:29:36.951Z,79.77
2017-10-26T02:32:21.851Z,81.05
2017-10-26T02:35:01.787Z,81.71
2017-10-26T02:37:40.129Z,82.45
2017-10-26T02:40:16.960Z,82.65
2017-10-26T02:42:51.572Z,82.55
2017-10-26T02:45:26.244Z,82.77
2017-10-26T02:48:01.770Z,82.66
2017-10-26T02:50:41.731Z,82.64
2017-10-26T02:53:18.674Z,82.54
2017-10-26T02:55:53.266Z,82.67
2017-10-26T03:01:13.742Z,82.40
2017-10-26T03:03:49.850Z,82.46
2017-10-26T03:06:26.934Z,82.47
2017-10-26T03:09:02.498Z,82.81
2017-10-26T03:11:38.078Z,83.04
2017-10-26T03:14:17.427Z,83.40
2017-10-26T03:17:08.294Z,83.38
2017-10-26T03:19:43.023Z,83.70
2017-10-26T03:22:17.997Z,83.73
2017-10-26T03:24:44.774Z,83.56
2017-10-26T03:27:29.217Z,83.60
2017-10-26T03:30:07.353Z,83.77
2017-10-26T03:32:48.678Z,83.77
2017-10-26T03:35:23.692Z,84.00
2017-10-26T03:38:00.412Z,84.25
2017-10-26T03:40:36.977Z,84.07
2017-10-26T03:43:11.640Z,84.09
2017-10-26T03:45:56.960Z,84.26
2017-10-26T03:48:32.611Z,84.20
2017-10-26T03:51:00.176Z,83.89
2017-10-26T03:53:37.364Z,83.98
2017-10-26T03:56:15.501Z,84.08
2017-10-26T03:58:51.335Z,83.75
2017-10-26T04:01:18.945Z,83.58
2017-10-26T04:03:50.674Z,83.31
2017-10-26T04:06:26.720Z,83.07
2017-10-26T04:09:10.340Z,82.71
2017-10-26T04:11:45.419Z,82.69
2017-10-26T04:14:28.609Z,82.48
2017-10-26T04:17:03.652Z,82.21
2017-10-26T04:19:47.974Z,82.22
2017-10-26T04:22:25.374Z,82.33
2017-10-26T04:25:09.232Z,82.16
2017-10-26T04:27:44.257Z,82.22
2017-10-26T04:30:20.056Z,82.06
2017-10-26T04:32:56.472Z,81.94
2017-10-26T04:35:31.061Z,81.98
2017-10-26T04:38:08.368Z,81.80
2017-10-26T04:40:43.787Z,81.46
2017-10-26T04:43:18.472Z,81.27
2017-10-26T04:45:53.288Z,81.09
2017-10-26T04:48:28.214Z,81.02
2017-10-26T04:50:54.918Z,81.09
2017-10-26T04:53:30.193Z,81.17
2017-10-26T04:56:04.772Z,80.82
2017-10-26T04:58:39.456Z,80.46
2017-10-26T05:01:13.931Z,80.28
2017-10-26T05:03:48.436Z,79.73
2017-10-26T05:06:23.065Z,79.45
2017-10-26T05:08:58.685Z,79.10
2017-10-26T05:11:34.039Z,79.12
2017-10-26T05:14:11.589Z,78.79
2017-10-26T05:16:52.195Z,78.63
2017-10-26T05:19:35.414Z,78.04
2017-10-26T05:22:15.634Z,77.76
2017-10-26T05:24:42.528Z,77.45
2017-10-26T05:27:17.003Z,76.92
2017-10-26T05:29:52.555Z,76.39
2017-10-26T05:32:27.610Z,75.70
2017-10-26T05:35:02.870Z,75.47
2017-10-26T05:37:38.189Z,75.23
2017-10-26T05:40:17.949Z,75.17
2017-10-26T05:42:52.585Z,74.94
2017-10-26T05:45:29.244Z,74.70
2017-10-26T05:48:03.985Z,74.66
2017-10-26T05:50:39.452Z,74.33
2017-10-26T05:53:14.988Z,73.92
2017-10-26T05:55:49.436Z,73.75
2017-10-26T05:58:24.058Z,73.86
2017-10-26T06:01:00.251Z,73.56
2017-10-26T06:03:35.153Z,73.62
2017-10-26T06:06:10.528Z,73.98
2017-10-26T06:08:45.287Z,73.39
2017-10-26T06:11:21.565Z,73.69
2017-10-26T06:17:05.408Z,74.20
2017-10-26T06:19:42.903Z,74.35
2017-10-26T06:22:17.420Z,73.96
2017-10-26T06:24:51.915Z,73.81
2017-10-26T06:27:27.338Z,73.58
2017-10-26T06:30:02.700Z,73.45
2017-10-26T06:32:39.010Z,73.49
2017-10-26T06:35:13.421Z,73.52
2017-10-26T06:37:47.874Z,73.17
2017-10-26T06:40:23.216Z,73.06
2017-10-26T06:42:57.826Z,72.98
2017-10-26T06:45:33.400Z,72.68
2017-10-26T06:48:10.760Z,71.69
2017-10-26T06:50:46.085Z,72.14
2017-10-26T06:53:21.633Z,71.42
2017-10-26T06:55:56.061Z,70.19
2017-10-26T06:58:32.922Z,69.71
2017-10-26T07:01:07.743Z,69.52
2017-10-26T07:03:45.522Z,70.73
2017-10-26T07:06:20.684Z,70.96
2017-10-26T07:09:01.039Z,71.24
2017-10-26T07:11:36.322Z,70.56
2017-10-26T07:14:11.623Z,70.36
2017-10-26T07:16:46.369Z,70.78
2017-10-26T07:19:21.555Z,70.51
2017-10-26T07:21:59.053Z,70.67
2017-10-26T07:24:26.743Z,71.39
2017-10-26T07:27:01.287Z,70.65
2017-10-26T07:29:36.868Z,70.30
2017-10-26T07:32:12.126Z,69.43
2017-10-26T07:34:47.730Z,71.20
2017-10-26T07:37:22.461Z,69.51
2017-10-26T07:39:57.657Z,69.44
2017-10-26T07:42:32.376Z,68.88
2017-10-26T07:45:07.368Z,68.98
2017-10-26T07:47:42.731Z,68.50
2017-10-26T07:50:19.053Z,69.08
2017-10-26T07:52:53.790Z,67.84
2017-10-26T07:55:31.611Z,68.10
2017-10-26T07:58:06.751Z,67.85
2017-10-26T08:00:41.602Z,67.02
2017-10-26T08:03:16.665Z,66.97
2017-10-26T08:05:55.714Z,67.94
2017-10-26T08:08:30.414Z,66.63
2017-10-26T08:11:08.247Z,66.19
2017-10-26T08:13:44.786Z,66.06
2017-10-26T08:16:23.938Z,65.43
2017-10-26T08:18:58.837Z,65.49
2017-10-26T08:21:34.205Z,64.90
2017-10-26T08:24:09.054Z,65.29
2017-10-26T08:26:44.334Z,65.83
2017-10-26T08:29:19.139Z,65.21
2017-10-26T08:31:53.834Z,64.51
2017-10-26T08:34:29.174Z,64.94
2017-10-26T08:37:07.979Z,63.83
2017-10-26T08:39:43.258Z,64.07
2017-10-26T08:42:17.955Z,64.31
2017-10-26T08:44:52.491Z,63.75
2017-10-26T08:47:31.447Z,62.63
2017-10-26T08:50:06.542Z,63.03
2017-10-26T08:52:42.253Z,62.42
2017-10-26T08:55:17.483Z,61.70
2017-10-26T08:57:52.416Z,62.53
2017-10-26T09:00:27.412Z,62.03
2017-10-26T09:03:03.922Z,61.67
2017-10-26T09:05:38.365Z,61.41
2017-10-26T09:08:14.765Z,61.38
2017-10-26T09:10:49.612Z,60.81
2017-10-26T09:13:25.219Z,61.17
2017-10-26T09:15:59.865Z,61.86
2017-10-26T09:18:38.571Z,60.31
2017-10-26T09:21:13.869Z,61.01
2017-10-26T09:23:43.715Z,60.61
2017-10-26T09:26:18.339Z,61.13
2017-10-26T09:28:55.051Z,60.71
2017-10-26T09:31:30.469Z,60.67
2017-10-26T09:34:05.049Z,60.14
2017-10-26T09:36:39.598Z,60.52
2017-10-26T09:39:15.103Z,60.84
2017-10-26T09:41:49.763Z,61.01
2017-10-26T09:44:28.829Z,59.16
2017-10-26T09:47:04.002Z,59.87
2017-10-26T09:49:39.253Z,60.50
2017-10-26T09:52:13.815Z,60.25
2017-10-26T09:54:48.618Z,59.67
2017-10-26T09:57:23.181Z,59.13
2017-10-26T09:59:58.759Z,59.30
2017-10-26T10:02:34.069Z,59.84
2017-10-26T10:05:12.026Z,58.78
2017-10-26T10:07:46.991Z,59.40
2017-10-26T10:10:21.781Z,59.48
2017-10-26T10:12:56.410Z,59.21
2017-10-26T10:15:31.057Z,58.96
2017-10-26T10:18:05.656Z,58.99
2017-10-26T10:20:42.264Z,58.68
2017-10-26T10:23:17.591Z,58.82
2017-10-26T10:25:53.439Z,58.78
2017-10-26T10:28:29.410Z,57.90
2017-10-26T10:31:06.355Z,57.74
2017-10-26T10:33:40.955Z,57.24
2017-10-26T10:36:18.158Z,57.63
2017-10-26T10:38:53.070Z,56.96
2017-10-26T10:41:28.613Z,57.41
2017-10-26T10:44:03.374Z,57.04
2017-10-26T10:46:38.739Z,57.13
2017-10-26T10:49:13.549Z,57.18
2017-10-26T10:51:49.193Z,57.14
2017-10-26T10:54:23.798Z,57.80
2017-10-26T10:56:59.256Z,59.04
2017-10-26T10:59:40.329Z,57.33
2017-10-26T11:02:15.107Z,57.63
2017-10-26T11:04:49.566Z,58.48
2017-10-26T11:07:25.022Z,57.50
2017-10-26T11:09:59.606Z,57.81
2017-10-26T11:12:35.414Z,57.79
2017-10-26T11:15:10.198Z,57.80
2017-10-26T11:17:45.669Z,57.60
2017-10-26T11:20:20.565Z,57.51
2017-10-26T11:23:02.139Z,57.18
2017-10-26T11:25:36.840Z,56.57
2017-10-26T11:28:15.743Z,57.01
2017-10-26T11:30:50.785Z,56.87
2017-10-26T11:33:26.644Z,57.49
2017-10-26T11:36:01.625Z,56.96
2017-10-26T11:38:37.884Z,56.99
2017-10-26T11:41:12.552Z,57.42
2017-10-26T11:43:47.522Z,57.72
2017-10-26T11:46:21.987Z,56.46
2017-10-26T11:48:56.772Z,56.11
2017-10-26T11:51:31.992Z,56.04
2017-10-26T11:54:07.488Z,56.22
2017-10-26T11:56:42.052Z,56.26
2017-10-26T11:59:18.217Z,55.74
2017-10-26T12:01:53.048Z,54.91
2017-10-26T12:04:27.786Z,55.35
2017-10-26T12:07:02.465Z,56.47
2017-10-26T12:09:38.817Z,55.39
2017-10-26T12:12:14.131Z,55.37
2017-10-26T12:14:49.597Z,55.37
2017-10-26T12:17:24.080Z,55.27
2017-10-26T12:19:59.671Z,55.40
2017-10-26T12:22:34.115Z,55.14
2017-10-26T12:25:09.219Z,56.05
2017-10-26T12:27:45.968Z,56.40
2017-10-26T12:30:20.811Z,56.66
2017-10-26T12:32:56.171Z,55.38
2017-10-26T12:35:30.853Z,56.07
2017-10-26T12:38:06.138Z,55.84
2017-10-26T12:40:40.675Z,55.46
2017-10-26T12:43:16.128Z,55.88
2017-10-26T12:45:50.699Z,55.80
2017-10-26T12:48:25.195Z,55.54
2017-10-26T12:51:04.131Z,55.61
2017-10-26T12:53:39.155Z,55.28
2017-10-26T12:56:17.517Z,55.04
2017-10-26T12:58:52.680Z,54.92
2017-10-26T13:01:28.265Z,54.91
2017-10-26T13:04:05.618Z,55.17
2017-10-26T13:06:40.493Z,55.19
2017-10-26T13:09:15.112Z,55.21
2017-10-26T13:11:49.724Z,54.71
2017-10-26T13:14:24.269Z,54.49
2017-10-26T13:17:00.788Z,54.48
2017-10-26T13:19:35.378Z,54.86
2017-10-26T13:22:09.999Z,55.26
2017-10-26T13:24:36.801Z,55.32
2017-10-26T13:27:12.818Z,54.72
2017-10-26T13:29:48.093Z,54.82
2017-10-26T13:32:23.868Z,54.65
2017-10-26T13:34:59.032Z,54.32
2017-10-26T13:37:36.078Z,53.92
2017-10-26T13:40:10.862Z,53.64
2017-10-26T13:42:47.002Z,53.25
2017-10-26T13:45:21.796Z,53.65
2017-10-26T13:48:01.945Z,54.33
2017-10-26T13:50:36.700Z,54.28
2017-10-26T13:53:12.088Z,53.85
2017-10-26T13:55:46.606Z,54.49
2017-10-26T13:58:21.092Z,54.73
2017-10-26T14:00:56.766Z,54.58
2017-10-26T14:03:33.102Z,54.16
2017-10-26T14:06:08.450Z,54.36
2017-10-26T14:08:43.761Z,54.32
2017-10-26T14:11:19.054Z,54.42
2017-10-26T14:13:53.504Z,55.24
2017-10-26T14:16:27.946Z,56.17
2017-10-26T14:19:04.138Z,56.75
2017-10-26T14:21:38.700Z,56.79
2017-10-26T14:24:14.424Z,57.02
2017-10-26T14:26:49.715Z,58.43
2017-10-26T14:29:25.008Z,57.76
2017-10-26T14:32:00.505Z,58.04
2017-10-26T14:34:35.449Z,58.79
2017-10-26T14:37:10.590Z,57.20
2017-10-26T14:39:46.884Z,57.20
2017-10-26T14:42:21.707Z,56.87
2017-10-26T14:44:56.574Z,57.21
2017-10-26T14:47:31.990Z,58.05
2017-10-26T14:50:10.915Z,58.76
2017-10-26T14:52:50.543Z,58.40
2017-10-26T14:55:26.103Z,58.18
2017-10-26T14:58:00.671Z,59.00
2017-10-26T15:00:35.261Z,58.74
2017-10-26T15:03:10.781Z,58.92
2017-10-26T15:05:47.213Z,59.72
2017-10-26T15:08:23.688Z,61.27
2017-10-26T15:11:01.517Z,62.08
2017-10-26T15:13:36.436Z,62.74
2017-10-26T15:16:13.425Z,63.62
2017-10-26T15:18:48.104Z,62.73
2017-10-26T15:21:23.592Z,63.08
2017-10-26T15:26:54.083Z,63.56
2017-10-26T15:29:30.563Z,64.55
2017-10-26T15:32:05.539Z,64.59
2017-10-26T15:34:41.016Z,64.97
2017-10-26T15:37:17.378Z,65.02
2017-10-26T15:39:52.123Z,65.28
2017-10-26T15:42:28.980Z,65.66
2017-10-26T15:45:03.846Z,65.85
2017-10-26T15:47:41.145Z,66.70
2017-10-26T15:50:15.885Z,66.63
2017-10-26T15:52:53.340Z,67.01
2017-10-26T15:55:28.413Z,67.44
2017-10-26T15:58:10.073Z,67.38
2017-10-26T16:00:50.937Z,67.57
2017-10-26T16:03:27.723Z,67.64
2017-10-26T16:06:02.410Z,67.58
2017-10-26T16:08:40.549Z,67.62
2017-10-26T16:11:24.419Z,67.29
2017-10-26T16:13:59.354Z,67.56
2017-10-26T16:16:33.907Z,67.43
2017-10-26T16:19:11.108Z,67.21
2017-10-26T16:21:46.143Z,68.25
2017-10-26T16:24:29.478Z,68.59
2017-10-26T16:27:04.517Z,69.03
2017-10-26T16:29:39.755Z,68.66
2017-10-26T16:32:15.106Z,69.44
2017-10-26T16:34:49.827Z,69.70
2017-10-26T16:37:24.715Z,70.85
2017-10-26T16:40:00.207Z,70.89
2017-10-26T16:42:34.921Z,71.49
2017-10-26T16:45:10.561Z,71.47
2017-10-26T16:47:45.254Z,71.85
2017-10-26T16:50:24.704Z,71.45
2017-10-26T16:53:01.840Z,71.76
2017-10-26T16:55:38.093Z,71.39
2017-10-26T17:00:57.144Z,73.40
2017-10-26T17:03:31.727Z,72.91
2017-10-26T17:06:08.327Z,72.82
2017-10-26T17:08:43.072Z,74.19
2017-10-26T17:11:23.366Z,74.21
2017-10-26T17:13:59.187Z,74.23
2017-10-26T17:16:35.478Z,74.07
2017-10-26T17:19:10.118Z,74.26
2017-10-26T17:21:46.477Z,74.43
2017-10-26T17:24:13.196Z,75.38
2017-10-26T17:26:47.756Z,76.31
2017-10-26T17:29:23.382Z,76.60
2017-10-26T17:32:00.516Z,76.47
2017-10-26T17:34:37.590Z,78.31
2017-10-26T17:37:12.911Z,77.54
2017-10-26T17:39:49.266Z,78.78
2017-10-26T17:42:24.825Z,78.96
2017-10-26T17:45:00.063Z,78.48
2017-10-26T17:47:42.427Z,78.74
2017-10-26T17:50:17.020Z,78.62
2017-10-26T17:52:53.254Z,78.20
2017-10-26T17:55:29.705Z,78.05
2017-10-26T17:58:05.159Z,77.74
2017-10-26T18:00:45.305Z,78.23
2017-10-26T18:03:20.125Z,79.01
2017-10-26T18:05:55.365Z,78.54
2017-10-26T18:08:33.211Z,78.64
2017-10-26T18:11:08.323Z,78.86
2017-10-26T18:13:44.902Z,77.82
2017-10-26T18:16:22.329Z,77.62
2017-10-26T18:19:14.405Z,78.10
2017-10-26T18:21:49.314Z,78.29
2017-10-26T18:24:28.882Z,78.16
2017-10-26T18:27:04.098Z,78.62
2017-10-26T18:29:40.237Z,78.68
2017-10-26T18:32:18.957Z,77.77
2017-10-26T18:34:56.016Z,77.83
2017-10-26T18:37:31.830Z,78.04
2017-10-26T18:40:08.009Z,77.27
2017-10-26T18:42:43.586Z,78.14
2017-10-26T18:45:19.068Z,78.58
2017-10-26T18:47:56.375Z,78.79
2017-10-26T18:50:30.952Z,77.84
2017-10-26T18:53:06.188Z,77.45
2017-10-26T18:55:46.350Z,78.15
2017-10-26T18:58:23.048Z,78.64
2017-10-26T19:01:08.083Z,79.66
2017-10-26T19:03:43.829Z,79.35
2017-10-26T19:06:21.456Z,79.69
2017-10-26T19:08:56.955Z,79.87
2017-10-26T19:11:34.375Z,80.22
2017-10-26T19:14:10.909Z,79.94
2017-10-26T19:16:46.373Z,80.55
2017-10-26T19:19:23.852Z,80.41
2017-10-26T19:22:01.848Z,81.46
2017-10-26T19:24:35.494Z,81.58
2017-10-26T19:27:15.889Z,81.41
2017-10-26T19:29:50.733Z,81.11
2017-10-26T19:32:31.198Z,80.98
2017-10-26T19:35:06.824Z,80.52
2017-10-26T19:37:46.991Z,80.49
2017-10-26T19:43:06.262Z,80.81
2017-10-26T19:45:42.553Z,80.91
2017-10-26T19:48:18.033Z,80.88
2017-10-26T19:50:53.453Z,80.67
2017-10-26T19:53:28.114Z,80.80
2017-10-26T19:56:12.494Z,81.27
2017-10-26T19:58:52.995Z,81.34
2017-10-26T20:01:30.159Z,81.48
2017-10-26T20:04:15.249Z,81.04
2017-10-26T20:09:27.238Z,81.31
2017-10-26T20:12:03.133Z,79.18
2017-10-26T20:14:38.627Z,79.32
2017-10-26T20:17:13.232Z,79.53
2017-10-26T20:19:48.931Z,78.36
2017-10-26T20:22:23.432Z,80.18
2017-10-26T20:25:01.908Z,81.54
2017-10-26T20:27:36.483Z,81.52
2017-10-26T20:30:04.270Z,81.68
2017-10-26T20:32:38.293Z,81.73
2017-10-26T20:35:15.278Z,80.98
2017-10-26T20:37:49.748Z,81.30
2017-10-26T20:40:24.415Z,80.96
2017-10-26T20:43:00.216Z,80.37
2017-10-26T20:45:36.534Z,80.11
2017-10-26T20:48:11.122Z,79.97
2017-10-26T20:50:52.906Z,79.64
2017-10-26T20:53:33.625Z,79.51
2017-10-26T20:56:16.021Z,79.31
2017-10-26T20:58:57.130Z,78.85
2017-10-26T21:01:39.999Z,78.96
2017-10-26T21:04:21.185Z,78.76
2017-10-26T21:07:00.332Z,78.95
2017-10-26T21:09:35.113Z,79.04
2017-10-26T21:12:18.483Z,78.72
2017-10-26T21:15:02.418Z,78.93
2017-10-26T21:17:45.119Z,78.83
2017-10-26T21:20:22.279Z,78.97
2017-10-26T21:25:55.165Z,78.60
2017-10-26T21:28:30.012Z,78.83
2017-10-26T21:31:05.605Z,78.68
2017-10-26T21:33:46.871Z,78.56
2017-10-26T21:36:21.712Z,78.58
2017-10-26T21:39:02.916Z,78.39
2017-10-26T21:41:39.596Z,78.61
2017-10-26T21:44:22.381Z,78.64
2017-10-26T21:46:59.467Z,78.37
2017-10-26T21:49:39.882Z,78.53
2017-10-26T21:52:14.475Z,78.53
2017-10-26T21:54:49.895Z,78.25
2017-10-26T21:57:24.696Z,78.34
2017-10-26T22:00:04.567Z,78.09
2017-10-26T22:02:39.578Z,77.95
2017-10-26T22:05:16.934Z,78.02
2017-10-26T22:07:56.238Z,77.90
2017-10-26T22:10:32.882Z,78.21
2017-10-26T22:15:53.626Z,77.73
2017-10-26T22:18:28.129Z,78.11
2017-10-26T22:21:08.385Z,78.28
2017-10-26T22:23:45.997Z,78.33
2017-10-26T22:26:21.374Z,78.75
2017-10-26T22:28:58.738Z,78.81
2017-10-26T22:31:36.322Z,79.18
2017-10-26T22:34:11.677Z,79.32
2017-10-26T22:36:51.748Z,79.48
2017-10-26T22:39:39.155Z,79.70
2017-10-26T22:42:14.365Z,79.82
2017-10-26T22:44:51.229Z,79.97
2017-10-26T22:47:30.217Z,80.06
2017-10-26T22:50:05.886Z,80.19
2017-10-26T22:52:42.530Z,79.91
2017-10-26T22:55:17.090Z,79.75
2017-10-26T22:57:53.626Z,79.06
2017-10-26T23:00:32.118Z,78.95
2017-10-26T23:03:12.565Z,78.82
2017-10-26T23:05:47.317Z,78.49
2017-10-26T23:08:28.493Z,78.54
2017-10-26T23:11:03.326Z,78.30
2017-10-26T23:13:45.475Z,78.15
2017-10-26T23:16:20.248Z,78.11
2017-10-26T23:18:55.734Z,78.39
2017-10-26T23:21:33.127Z,78.76
2017-10-26T23:24:06.514Z,78.91
2017-10-26T23:26:41.958Z,78.81
2017-10-26T23:29:20.570Z,78.81
2017-10-26T23:32:07.680Z,79.16
2017-10-26T23:34:50.192Z,78.90
2017-10-26T23:37:25.420Z,78.86
2017-10-26T23:40:05.116Z,78.91
2017-10-26T23:42:40.632Z,78.76
2017-10-26T23:45:31.831Z,78.26
2017-10-26T23:48:15.762Z,77.70
2017-10-26T23:50:56.281Z,77.91
2017-10-26T23:53:31.057Z,77.95
2017-10-26T23:56:14.206Z,78.45
2017-10-26T23:58:56.785Z,78.61
